Time;durP1;ratioP1;P1;durP2;ratioP2;P2;SDS_P1;SDS_P2;PMS_P1;PMS_P2;Temp;Humidity;BMP_temperature;BMP_pressure;BME280_temperature;BME280_humidity;BME280_pressure;Samples;Min_cycle;Max_cycle;Signal;HPM_P1;HPM_P2
2022/06/04 00:02:47;;;;;;;1.20;0.80;;;21.00;99.90;;;;;;21074503;28;20331;-75
2022/06/04 00:23:11;;;;;;;1.10;0.80;;;20.90;99.90;;;;;;21072450;28;20223;-75
2022/06/04 00:33:15;;;;;;;1.93;0.93;;;;;;;;;;21072778;28;20207;-75
2022/06/04 00:43:18;;;;;;;1.60;1.10;;;20.80;99.90;;;;;;21053225;28;20219;-75
2022/06/04 00:53:20;;;;;;;3.07;0.93;;;;;;;;;;21053428;28;20572;-76
2022/06/04 01:03:22;;;;;;;1.57;1.17;;;;;;;;;;21052355;28;20215;-76
2022/06/04 01:13:53;;;;;;;1.47;1.00;;;20.50;99.90;;;;;;21052305;28;20832;-76
2022/06/04 01:24:25;;;;;;;2.80;1.27;;;20.50;99.90;;;;;;21070399;28;20758;-77
2022/06/04 01:34:44;;;;;;;1.50;1.20;;;20.40;99.90;;;;;;21069785;28;20204;-76
2022/06/04 01:44:47;;;;;;;1.23;0.93;;;20.20;99.90;;;;;;21033867;28;20220;-76
2022/06/04 01:55:11;;;;;;;1.33;1.00;;;20.30;99.90;;;;;;21068850;28;20204;-75
2022/06/04 02:05:19;;;;;;;1.40;0.90;;;20.20;99.90;;;;;;21067799;28;20689;-75
2022/06/04 02:15:24;;;;;;;1.40;0.93;;;;;;;;;;21034857;28;20215;-75
2022/06/04 02:25:29;;;;;;;1.30;0.93;;;20.00;99.90;;;;;;21065202;28;20215;-75
2022/06/04 02:35:42;;;;;;;1.23;0.90;;;;;;;;;;21046472;28;20689;-75
2022/06/04 02:45:49;;;;;;;1.87;1.03;;;;;;;;;;21080990;28;20689;-75
2022/06/04 02:55:53;;;;;;;2.20;1.40;;;;;;;;;;21080077;28;20257;-75
2022/06/04 03:06:01;;;;;;;1.40;0.90;;;19.70;99.90;;;;;;21079274;28;20623;-75
2022/06/04 03:16:03;;;;;;;1.23;0.97;;;19.70;99.90;;;;;;21057021;28;20223;-75
2022/06/04 03:26:05;;;;;;;3.20;1.50;;;19.80;99.90;;;;;;21042511;28;20234;-75
2022/06/04 03:36:11;;;;;;;1.97;1.30;;;19.60;99.90;;;;;;21025535;28;20804;-75
2022/06/04 03:46:13;;;;;;;1.90;1.47;;;19.50;99.90;;;;;;21076642;28;20280;-75
2022/06/04 03:56:15;;;;;;;2.30;1.43;;;;;;;;;;21076388;28;20212;-75
2022/06/04 04:06:21;;;;;;;1.97;1.30;;;19.50;99.90;;;;;;21073775;28;20210;-75
2022/06/04 04:16:23;;;;;;;1.83;1.37;;;19.40;99.90;;;;;;21075149;28;20602;-75
2022/06/04 04:26:26;;;;;;;2.30;1.40;;;;;;;;;;21062375;28;20232;-76
2022/06/04 04:36:30;;;;;;;1.97;1.43;;;;;;;;;;21066573;28;20234;-76
2022/06/04 04:46:31;;;;;;;2.60;1.63;;;;;;;;;;21046826;28;20682;-76
2022/06/04 04:56:34;;;;;;;2.20;1.50;;;;;;;;;;21013230;28;20222;-76
2022/06/04 05:06:35;;;;;;;2.93;1.70;;;;;;;;;;21013051;28;20227;-77
2022/06/04 05:16:39;;;;;;;3.37;2.30;;;20.30;99.90;;;;;;21036282;28;20689;-75
2022/06/04 05:26:41;;;;;;;2.07;1.60;;;;;;;;;;21036123;28;20640;-75
2022/06/04 05:36:49;;;;;;;3.47;2.30;;;;;;;;;;21085560;22;20645;-67
2022/06/04 05:46:53;;;;;;;2.73;1.73;;;20.50;99.90;;;;;;20779571;28;20288;-77
2022/06/04 05:56:55;;;;;;;2.10;1.60;;;;;;;;;;20835217;28;20530;-77
2022/06/04 06:06:59;;;;;;;4.30;2.33;;;;;;;;;;20839409;28;20284;-77
2022/06/04 06:17:01;;;;;;;3.43;2.47;;;;;;;;;;20852896;28;20220;-77
2022/06/04 06:27:03;;;;;;;3.77;2.47;;;;;;;;;;20870594;28;20233;-75
2022/06/04 06:37:05;;;;;;;4.20;2.40;;;;;;;;;;20802603;28;20643;-76
2022/06/04 06:47:07;;;;;;;3.67;2.70;;;;;;;;;;20822722;28;20222;-76
2022/06/04 06:57:11;;;;;;;5.47;2.60;;;21.00;99.90;;;;;;20828704;28;20240;-77
2022/06/04 07:07:13;;;;;;;4.30;2.60;;;;;;;;;;20830697;28;20287;-76
2022/06/04 07:17:15;;;;;;;5.20;3.10;;;;;;;;;;20821874;28;20293;-77
2022/06/04 07:27:17;;;;;;;4.23;2.53;;;;;;;;;;20790040;28;20210;-77
2022/06/04 07:37:19;;;;;;;3.70;2.67;;;;;;;;;;20797969;28;20276;-77
2022/06/04 07:47:21;;;;;;;4.57;2.77;;;;;;;;;;20824551;28;20340;-77
2022/06/04 07:57:22;;;;;;;3.20;2.60;;;;;;;;;;20819360;28;20616;-77
2022/06/04 08:07:25;;;;;;;3.53;2.67;;;;;;;;;;20785255;28;20268;-77
2022/06/04 08:17:27;;;;;;;3.77;3.03;;;;;;;;;;20836689;28;20574;-77
2022/06/04 08:27:28;;;;;;;6.43;3.17;;;;;;;;;;20801285;28;20669;-77
2022/06/04 08:37:30;;;;;;;4.73;3.30;;;;;;;;;;20813038;28;20249;-77
2022/06/04 08:47:36;;;;;;;4.00;3.40;;;;;;;;;;20794036;28;20230;-77
2022/06/04 08:57:53;;;;;;;3.97;2.57;;;;;;;;;;20811247;28;20284;-76
2022/06/04 09:08:01;;;;;;;5.23;3.17;;;21.60;99.90;;;;;;20822414;28;20256;-75
2022/06/04 09:18:27;;;;;;;3.70;3.00;;;;;;;;;;20799491;28;20587;-76
2022/06/04 09:28:39;;;;;;;6.07;3.43;;;;;;;;;;20814845;28;20223;-75
2022/06/04 09:38:51;;;;;;;3.60;2.90;;;;;;;;;;20791808;28;20260;-75
2022/06/04 09:48:53;;;;;;;4.23;3.00;;;;;;;;;;20817071;28;20212;-76
2022/06/04 09:59:28;;;;;;;3.80;3.40;;;21.60;99.90;;;;;;20833443;28;20222;-76
2022/06/04 10:19:52;;;;;;;4.40;3.30;;;;;;;;;;20817005;28;20863;-77
2022/06/04 10:30:15;;;;;;;5.13;3.10;;;;;;;;;;20811540;28;20682;-76
2022/06/04 10:40:17;;;;;;;3.93;3.40;;;;;;;;;;20774449;28;20215;-76
2022/06/04 10:50:22;;;;;;;5.57;2.97;;;;;;;;;;20835502;28;20754;-75
2022/06/04 11:00:34;;;;;;;3.67;2.72;;;22.60;99.90;;;;;;20836594;28;20217;-76
2022/06/04 11:10:46;;;;;;;3.35;2.70;;;22.70;99.90;;;;;;20831381;28;20712;-77
2022/06/04 11:21:12;;;;;;;3.10;2.78;;;;;;;;;;20836838;28;20218;-77
2022/06/04 11:31:33;;;;;;;3.60;2.92;;;23.20;99.90;;;;;;20755417;28;20224;-76
2022/06/04 11:41:41;;;;;;;4.72;3.03;;;;;;;;;;20906023;22;20237;-72
2022/06/04 11:52:05;;;;;;;3.22;2.70;;;;;;;;;;21025581;28;20226;-73
2022/06/04 12:02:10;;;;;;;3.75;3.00;;;;;;;;;;21028559;28;20254;-72
2022/06/04 12:12:36;;;;;;;5.57;5.00;;;;;;;;;;21012392;28;20646;-73
2022/06/04 12:33:25;;;;;;;4.47;3.70;;;;;;;;;;21024234;28;20306;-72
2022/06/04 12:43:31;;;;;;;5.22;3.90;;;25.20;99.90;;;;;;20991589;28;20251;-73
2022/06/04 12:53:35;;;;;;;4.97;3.33;;;;;;;;;;21011799;28;20229;-74
2022/06/04 13:03:41;;;;;;;4.00;2.17;;;25.70;99.90;;;;;;21014231;28;20273;-72
2022/06/04 13:13:55;;;;;;;3.22;1.77;;;25.90;99.90;;;;;;21034312;28;20245;-73
2022/06/04 13:23:59;;;;;;;2.88;1.90;;;;;;;;;;20952904;28;20212;-72
2022/06/04 13:34:17;;;;;;;2.00;1.55;;;26.40;99.90;;;;;;20952913;28;20222;-73
2022/06/04 13:44:21;;;;;;;2.85;1.20;;;;;;;;;;21116711;28;20270;-73
2022/06/04 13:54:29;;;;;;;2.45;1.30;;;;;;;;;;21103423;28;20211;-73
2022/06/04 14:14:57;;;;;;;2.83;1.00;;;27.00;99.90;;;;;;21075103;28;20217;-72
2022/06/04 14:25:00;;;;;;;1.90;1.27;;;;;;;;;;21033465;28;20219;-72
2022/06/04 14:35:15;;;;;;;2.15;1.30;;;27.40;99.90;;;;;;21049229;28;20264;-73
2022/06/04 14:45:24;;;;;;;2.10;1.10;;;;;;;;;;21032390;28;20247;-73
2022/06/04 14:55:26;;;;;;;1.77;1.10;;;;;;;;;;21015130;28;20564;-73
2022/06/04 15:05:40;;;;;;;2.25;1.10;;;27.50;99.90;;;;;;21063273;28;20234;-73
2022/06/04 15:16:04;;;;;;;2.00;0.95;;;;;;;;;;21039331;28;20293;-72
2022/06/04 15:26:12;;;;;;;2.28;1.00;;;27.80;96.60;;;;;;21027080;28;20221;-71
2022/06/04 15:36:20;;;;;;;1.85;1.05;;;;;;;;;;21051961;28;20215;-73
2022/06/04 15:46:45;;;;;;;1.50;1.00;;;;;;;;;;21017437;28;20334;-72
2022/06/04 15:56:48;;;;;;;1.70;1.10;;;;;;;;;;21003142;28;20231;-72
2022/06/04 16:07:12;;;;;;;2.15;1.27;;;;;;;;;;21040509;28;20275;-73
2022/06/04 16:17:15;;;;;;;2.05;1.17;;;;;;;;;;21037113;28;20337;-73
2022/06/04 16:27:26;;;;;;;1.58;1.17;;;28.30;98.20;;;;;;21014489;28;20682;-72
2022/06/04 16:37:31;;;;;;;1.58;0.82;;;;;;;;;;21010738;28;21005;-71
2022/06/04 16:47:33;;;;;;;1.38;1.10;;;;;;;;;;21003520;28;20230;-73
2022/06/04 16:57:35;;;;;;;2.17;1.10;;;;;;;;;;21031277;28;20215;-73
2022/06/04 17:07:56;;;;;;;1.55;1.20;;;;;;;;;;20995315;28;20239;-73
2022/06/04 17:18:17;;;;;;;1.60;1.20;;;;;;;;;;20997412;28;20596;-74
2022/06/04 17:28:23;;;;;;;1.58;1.17;;;;;;;;;;21010673;28;20217;-74
2022/06/04 17:38:31;;;;;;;1.30;1.02;;;;;;;;;;20994091;28;20243;-74
2022/06/04 17:48:33;;;;;;;3.47;1.23;;;;;;;;;;20861518;23;20236;-71
2022/06/04 17:58:35;;;;;;;1.63;1.25;;;;;;;;;;20874642;28;20249;-71
2022/06/04 18:08:38;;;;;;;1.20;0.80;;;;;;;;;;20831465;28;20212;-71
2022/06/04 18:18:40;;;;;;;1.45;1.10;;;;;;;;;;20892725;28;20236;-71
2022/06/04 18:28:42;;;;;;;1.42;0.95;;;;;;;;;;20867513;28;20679;-72
2022/06/04 18:38:47;;;;;;;1.70;1.05;;;;;;;;;;20757000;28;20252;-73
2022/06/04 18:59:25;;;;;;;1.00;0.80;;;26.20;99.90;;;;;;20892077;28;20306;-71
2022/06/04 19:09:27;;;;;;;1.38;1.10;;;;;;;;;;20871564;28;20200;-71
2022/06/04 19:19:31;;;;;;;1.45;1.00;;;26.00;99.90;;;;;;20872172;28;20224;-72
2022/06/04 19:29:33;;;;;;;1.38;1.10;;;;;;;;;;20888352;28;20222;-72
2022/06/04 19:39:35;;;;;;;1.42;1.17;;;;;;;;;;20847886;28;20271;-72
2022/06/04 19:49:49;;;;;;;1.50;1.10;;;25.70;99.90;;;;;;20878912;28;20753;-73
2022/06/04 19:59:51;;;;;;;1.88;1.25;;;;;;;;;;20846200;28;20254;-73
2022/06/04 20:09:53;;;;;;;1.92;1.40;;;;;;;;;;20850280;28;20218;-73
2022/06/04 20:19:56;;;;;;;2.63;1.70;;;;;;;;;;20856579;28;20217;-74
2022/06/04 20:29:58;;;;;;;2.72;1.85;;;;;;;;;;20864081;28;20764;-71
2022/06/04 20:40:02;;;;;;;1.95;1.60;;;;;;;;;;20858787;28;20573;-71
2022/06/04 20:50:06;;;;;;;1.80;1.40;;;;;;;;;;20892945;28;20283;-70
2022/06/04 21:00:11;;;;;;;1.95;1.30;;;25.00;99.90;;;;;;20870091;28;20861;-70
2022/06/04 21:10:13;;;;;;;2.22;1.55;;;;;;;;;;20834913;28;20247;-69
2022/06/04 21:20:15;;;;;;;1.95;1.40;;;;;;;;;;20877530;28;20226;-71
2022/06/04 21:30:17;;;;;;;1.75;1.38;;;;;;;;;;20880089;28;20662;-70
2022/06/04 21:40:21;;;;;;;2.42;1.30;;;24.60;99.90;;;;;;20909249;28;20238;-70
2022/06/04 21:50:30;;;;;;;1.67;1.17;;;24.50;99.90;;;;;;20897110;28;20273;-70
2022/06/04 22:00:32;;;;;;;1.55;1.20;;;;;;;;;;20897456;28;20703;-71
2022/06/04 22:10:35;;;;;;;1.40;0.93;;;;;;;;;;20896883;28;20207;-71
2022/06/04 22:20:36;;;;;;;1.52;1.00;;;;;;;;;;20896406;28;20220;-71
2022/06/04 22:30:58;;;;;;;1.35;0.90;;;;;;;;;;20889120;28;20264;-72
2022/06/04 22:41:04;;;;;;;1.40;1.00;;;;;;;;;;20899423;28;20773;-71
2022/06/04 22:51:06;;;;;;;1.48;1.05;;;23.80;99.90;;;;;;20882281;28;20216;-71
2022/06/04 23:01:09;;;;;;;1.60;1.10;;;;;;;;;;20881097;28;20270;-71
2022/06/04 23:21:31;;;;;;;3.08;1.65;;;;;;;;;;20906997;28;20292;-71
2022/06/04 23:31:34;;;;;;;3.35;1.40;;;;;;;;;;20896210;28;20636;-71
2022/06/04 23:51:58;;;;;;;2.17;1.63;;;;;;;;;;21078514;28;20230;-80
